Shiloh, Texas
Current Conditions -  °F | °C
As of 5:15 AM on Thursday 23 Oct 2014 (Local Time) from KLXY Reporting Station
Moderate Rain Moderate Rain  
Wind Chill: 61°   Ceiling: 12000
Heat Index: 61°   Visibility: 10mi
Dew Point: 56°   Wind: 0mph
Humidity: 84%   Direction: NA
Pressure: 30.11"   Gusts: NA
Location:  31.6887°N, 96.511°W
Report Text: KLXY 231015Z AUTO 00000KT 10SM RA SCT090 BKN120 16/14 A3011 RMK AO2 T01620135
Loading
Personal Weather Stations






























Interactive Weather Map New forecast layout! Learn more

10-Day Weather Forecast

Advertisements
Track Severe Weather on mobile